sensor_id;sensor_type;location;lat;lon;timestamp;P1;durP1;ratioP1;P2;durP2;ratioP2
15555;SDS011;7879;48.660;9.116;2022-07-29T00:02:24;0.10;;;0.10;;
15555;SDS011;7879;48.660;9.116;2022-07-29T00:04:52;0.20;;;0.20;;
15555;SDS011;7879;48.660;9.116;2022-07-29T00:07:19;0.10;;;0.10;;
15555;SDS011;7879;48.660;9.116;2022-07-29T00:12:20;0.10;;;0.10;;
15555;SDS011;7879;48.660;9.116;2022-07-29T00:14:52;0.20;;;0.20;;
15555;SDS011;7879;48.660;9.116;2022-07-29T00:17:20;0.17;;;0.17;;
15555;SDS011;7879;48.660;9.116;2022-07-29T00:19:47;0.20;;;0.20;;
15555;SDS011;7879;48.660;9.116;2022-07-29T00:22:14;0.20;;;0.20;;
15555;SDS011;7879;48.660;9.116;2022-07-29T00:24:40;0.10;;;0.10;;
15555;SDS011;7879;48.660;9.116;2022-07-29T00:27:07;0.20;;;0.20;;
15555;SDS011;7879;48.660;9.116;2022-07-29T00:29:34;0.20;;;0.20;;
15555;SDS011;7879;48.660;9.116;2022-07-29T00:32:01;0.20;;;0.20;;
15555;SDS011;7879;48.660;9.116;2022-07-29T00:34:28;0.15;;;0.15;;
15555;SDS011;7879;48.660;9.116;2022-07-29T00:37:14;0.20;;;0.20;;
15555;SDS011;7879;48.660;9.116;2022-07-29T00:39:41;0.20;;;0.20;;
15555;SDS011;7879;48.660;9.116;2022-07-29T00:42:08;0.20;;;0.20;;
15555;SDS011;7879;48.660;9.116;2022-07-29T00:44:39;0.13;;;0.13;;
15555;SDS011;7879;48.660;9.116;2022-07-29T00:47:07;0.20;;;0.20;;
15555;SDS011;7879;48.660;9.116;2022-07-29T00:49:35;0.20;;;0.20;;
15555;SDS011;7879;48.660;9.116;2022-07-29T00:52:05;0.20;;;0.20;;
15555;SDS011;7879;48.660;9.116;2022-07-29T00:54:33;0.20;;;0.20;;
15555;SDS011;7879;48.660;9.116;2022-07-29T00:57:05;0.20;;;0.20;;
15555;SDS011;7879;48.660;9.116;2022-07-29T00:59:34;0.20;;;0.20;;
15555;SDS011;7879;48.660;9.116;2022-07-29T01:02:02;0.20;;;0.20;;
15555;SDS011;7879;48.660;9.116;2022-07-29T01:04:30;0.20;;;0.20;;
15555;SDS011;7879;48.660;9.116;2022-07-29T01:06:58;0.20;;;0.20;;
15555;SDS011;7879;48.660;9.116;2022-07-29T01:09:27;0.10;;;0.10;;
15555;SDS011;7879;48.660;9.116;2022-07-29T01:12:12;0.20;;;0.20;;
15555;SDS011;7879;48.660;9.116;2022-07-29T01:14:41;0.20;;;0.20;;
15555;SDS011;7879;48.660;9.116;2022-07-29T01:17:22;0.20;;;0.20;;
15555;SDS011;7879;48.660;9.116;2022-07-29T01:31:27;0.20;;;0.20;;
15555;SDS011;7879;48.660;9.116;2022-07-29T01:34:07;0.20;;;0.20;;
15555;SDS011;7879;48.660;9.116;2022-07-29T01:36:40;0.20;;;0.20;;
15555;SDS011;7879;48.660;9.116;2022-07-29T01:39:45;0.20;;;0.20;;
15555;SDS011;7879;48.660;9.116;2022-07-29T01:42:06;0.17;;;0.17;;
15555;SDS011;7879;48.660;9.116;2022-07-29T01:44:48;0.20;;;0.20;;
15555;SDS011;7879;48.660;9.116;2022-07-29T01:47:46;0.20;;;0.20;;
15555;SDS011;7879;48.660;9.116;2022-07-29T01:50:31;0.20;;;0.20;;
15555;SDS011;7879;48.660;9.116;2022-07-29T01:53:06;0.17;;;0.17;;
15555;SDS011;7879;48.660;9.116;2022-07-29T01:55:39;0.20;;;0.20;;
15555;SDS011;7879;48.660;9.116;2022-07-29T01:58:10;0.20;;;0.20;;
15555;SDS011;7879;48.660;9.116;2022-07-29T02:00:40;0.20;;;0.20;;
15555;SDS011;7879;48.660;9.116;2022-07-29T02:03:09;0.10;;;0.10;;
15555;SDS011;7879;48.660;9.116;2022-07-29T02:05:38;0.10;;;0.10;;
15555;SDS011;7879;48.660;9.116;2022-07-29T02:08:07;0.20;;;0.20;;
15555;SDS011;7879;48.660;9.116;2022-07-29T02:10:36;0.20;;;0.20;;
15555;SDS011;7879;48.660;9.116;2022-07-29T02:13:06;0.20;;;0.20;;
15555;SDS011;7879;48.660;9.116;2022-07-29T02:15:33;0.20;;;0.20;;
15555;SDS011;7879;48.660;9.116;2022-07-29T02:18:15;0.20;;;0.20;;
15555;SDS011;7879;48.660;9.116;2022-07-29T02:20:45;0.20;;;0.20;;
15555;SDS011;7879;48.660;9.116;2022-07-29T02:23:15;0.20;;;0.20;;
15555;SDS011;7879;48.660;9.116;2022-07-29T02:25:47;0.20;;;0.20;;
15555;SDS011;7879;48.660;9.116;2022-07-29T02:28:17;0.20;;;0.20;;
15555;SDS011;7879;48.660;9.116;2022-07-29T02:30:46;0.20;;;0.20;;
15555;SDS011;7879;48.660;9.116;2022-07-29T02:33:15;0.20;;;0.20;;
15555;SDS011;7879;48.660;9.116;2022-07-29T02:35:44;0.20;;;0.20;;
15555;SDS011;7879;48.660;9.116;2022-07-29T02:38:14;0.15;;;0.15;;
15555;SDS011;7879;48.660;9.116;2022-07-29T02:41:01;0.20;;;0.20;;
15555;SDS011;7879;48.660;9.116;2022-07-29T02:43:32;0.20;;;0.20;;
15555;SDS011;7879;48.660;9.116;2022-07-29T02:46:02;0.20;;;0.20;;
15555;SDS011;7879;48.660;9.116;2022-07-29T02:48:55;0.20;;;0.20;;
15555;SDS011;7879;48.660;9.116;2022-07-29T02:51:46;0.20;;;0.20;;
15555;SDS011;7879;48.660;9.116;2022-07-29T02:54:20;0.20;;;0.20;;
15555;SDS011;7879;48.660;9.116;2022-07-29T02:56:51;0.20;;;0.20;;
15555;SDS011;7879;48.660;9.116;2022-07-29T02:59:22;0.20;;;0.20;;
15555;SDS011;7879;48.660;9.116;2022-07-29T03:01:52;0.20;;;0.20;;
15555;SDS011;7879;48.660;9.116;2022-07-29T03:04:22;0.20;;;0.20;;
15555;SDS011;7879;48.660;9.116;2022-07-29T03:06:51;0.20;;;0.20;;
15555;SDS011;7879;48.660;9.116;2022-07-29T03:09:19;0.20;;;0.20;;
15555;SDS011;7879;48.660;9.116;2022-07-29T03:11:48;0.20;;;0.20;;
15555;SDS011;7879;48.660;9.116;2022-07-29T03:14:17;0.20;;;0.20;;
15555;SDS011;7879;48.660;9.116;2022-07-29T03:16:46;0.20;;;0.20;;
15555;SDS011;7879;48.660;9.116;2022-07-29T03:19:13;0.20;;;0.20;;
15555;SDS011;7879;48.660;9.116;2022-07-29T03:21:41;0.20;;;0.20;;
15555;SDS011;7879;48.660;9.116;2022-07-29T03:24:07;0.20;;;0.20;;
15555;SDS011;7879;48.660;9.116;2022-07-29T03:26:36;0.10;;;0.10;;
15555;SDS011;7879;48.660;9.116;2022-07-29T03:29:02;0.20;;;0.20;;
15555;SDS011;7879;48.660;9.116;2022-07-29T03:31:29;0.20;;;0.20;;
15555;SDS011;7879;48.660;9.116;2022-07-29T03:33:56;0.20;;;0.20;;
15555;SDS011;7879;48.660;9.116;2022-07-29T03:36:23;0.20;;;0.20;;
15555;SDS011;7879;48.660;9.116;2022-07-29T03:38:50;0.20;;;0.20;;
15555;SDS011;7879;48.660;9.116;2022-07-29T03:41:18;0.20;;;0.20;;
15555;SDS011;7879;48.660;9.116;2022-07-29T03:43:47;0.20;;;0.20;;
15555;SDS011;7879;48.660;9.116;2022-07-29T03:46:17;0.20;;;0.20;;
15555;SDS011;7879;48.660;9.116;2022-07-29T03:49:08;0.20;;;0.20;;
15555;SDS011;7879;48.660;9.116;2022-07-29T03:51:37;0.20;;;0.20;;
15555;SDS011;7879;48.660;9.116;2022-07-29T03:54:05;0.20;;;0.20;;
15555;SDS011;7879;48.660;9.116;2022-07-29T03:56:38;0.20;;;0.20;;
15555;SDS011;7879;48.660;9.116;2022-07-29T03:59:08;0.20;;;0.20;;
15555;SDS011;7879;48.660;9.116;2022-07-29T04:01:37;0.20;;;0.20;;
15555;SDS011;7879;48.660;9.116;2022-07-29T04:04:05;0.20;;;0.20;;
15555;SDS011;7879;48.660;9.116;2022-07-29T04:06:44;0.20;;;0.20;;
15555;SDS011;7879;48.660;9.116;2022-07-29T04:09:13;0.20;;;0.20;;
15555;SDS011;7879;48.660;9.116;2022-07-29T04:11:40;0.22;;;0.22;;
15555;SDS011;7879;48.660;9.116;2022-07-29T04:14:28;0.20;;;0.20;;
15555;SDS011;7879;48.660;9.116;2022-07-29T04:16:54;0.20;;;0.20;;
15555;SDS011;7879;48.660;9.116;2022-07-29T04:19:21;0.20;;;0.20;;
15555;SDS011;7879;48.660;9.116;2022-07-29T04:21:48;0.20;;;0.20;;
15555;SDS011;7879;48.660;9.116;2022-07-29T04:24:15;0.20;;;0.20;;
15555;SDS011;7879;48.660;9.116;2022-07-29T04:26:43;0.20;;;0.20;;
15555;SDS011;7879;48.660;9.116;2022-07-29T04:29:11;0.20;;;0.20;;
15555;SDS011;7879;48.660;9.116;2022-07-29T04:31:38;0.20;;;0.20;;
15555;SDS011;7879;48.660;9.116;2022-07-29T04:34:04;0.20;;;0.20;;
15555;SDS011;7879;48.660;9.116;2022-07-29T04:36:31;0.20;;;0.20;;
15555;SDS011;7879;48.660;9.116;2022-07-29T04:38:58;0.20;;;0.20;;
15555;SDS011;7879;48.660;9.116;2022-07-29T04:41:30;0.20;;;0.20;;
15555;SDS011;7879;48.660;9.116;2022-07-29T04:43:58;0.20;;;0.20;;
15555;SDS011;7879;48.660;9.116;2022-07-29T04:46:27;0.20;;;0.20;;
15555;SDS011;7879;48.660;9.116;2022-07-29T04:48:54;0.20;;;0.20;;
15555;SDS011;7879;48.660;9.116;2022-07-29T04:51:21;0.20;;;0.20;;
15555;SDS011;7879;48.660;9.116;2022-07-29T04:53:48;0.20;;;0.20;;
15555;SDS011;7879;48.660;9.116;2022-07-29T04:56:14;0.20;;;0.20;;
15555;SDS011;7879;48.660;9.116;2022-07-29T04:58:41;0.20;;;0.20;;
15555;SDS011;7879;48.660;9.116;2022-07-29T05:01:08;0.10;;;0.10;;
15555;SDS011;7879;48.660;9.116;2022-07-29T05:03:36;0.10;;;0.10;;
15555;SDS011;7879;48.660;9.116;2022-07-29T05:06:02;0.20;;;0.20;;
15555;SDS011;7879;48.660;9.116;2022-07-29T05:08:29;0.20;;;0.20;;
15555;SDS011;7879;48.660;9.116;2022-07-29T05:10:56;0.20;;;0.20;;
15555;SDS011;7879;48.660;9.116;2022-07-29T05:13:37;0.20;;;0.20;;
15555;SDS011;7879;48.660;9.116;2022-07-29T05:16:12;0.20;;;0.20;;
15555;SDS011;7879;48.660;9.116;2022-07-29T05:18:40;0.20;;;0.20;;
15555;SDS011;7879;48.660;9.116;2022-07-29T05:21:07;0.13;;;0.13;;
15555;SDS011;7879;48.660;9.116;2022-07-29T05:23:34;0.20;;;0.20;;
15555;SDS011;7879;48.660;9.116;2022-07-29T05:26:00;0.20;;;0.20;;
15555;SDS011;7879;48.660;9.116;2022-07-29T05:28:27;0.10;;;0.10;;
15555;SDS011;7879;48.660;9.116;2022-07-29T05:30:54;0.13;;;0.13;;
15555;SDS011;7879;48.660;9.116;2022-07-29T05:33:22;0.20;;;0.20;;
15555;SDS011;7879;48.660;9.116;2022-07-29T05:36:02;0.10;;;0.10;;
15555;SDS011;7879;48.660;9.116;2022-07-29T05:38:31;0.13;;;0.13;;
15555;SDS011;7879;48.660;9.116;2022-07-29T05:40:59;0.10;;;0.10;;
15555;SDS011;7879;48.660;9.116;2022-07-29T05:43:29;0.10;;;0.10;;
15555;SDS011;7879;48.660;9.116;2022-07-29T05:45:57;0.20;;;0.20;;
15555;SDS011;7879;48.660;9.116;2022-07-29T05:48:24;0.10;;;0.10;;
15555;SDS011;7879;48.660;9.116;2022-07-29T05:50:51;0.10;;;0.10;;
15555;SDS011;7879;48.660;9.116;2022-07-29T05:53:18;0.10;;;0.10;;
15555;SDS011;7879;48.660;9.116;2022-07-29T05:55:49;0.10;;;0.10;;
15555;SDS011;7879;48.660;9.116;2022-07-29T05:58:18;0.20;;;0.20;;
15555;SDS011;7879;48.660;9.116;2022-07-29T06:00:45;0.10;;;0.10;;
15555;SDS011;7879;48.660;9.116;2022-07-29T06:03:11;0.10;;;0.10;;
15555;SDS011;7879;48.660;9.116;2022-07-29T06:05:39;0.10;;;0.10;;
15555;SDS011;7879;48.660;9.116;2022-07-29T06:08:06;0.10;;;0.10;;
15555;SDS011;7879;48.660;9.116;2022-07-29T06:10:36;0.10;;;0.10;;
15555;SDS011;7879;48.660;9.116;2022-07-29T06:13:03;0.10;;;0.10;;
15555;SDS011;7879;48.660;9.116;2022-07-29T06:15:30;0.10;;;0.10;;
15555;SDS011;7879;48.660;9.116;2022-07-29T06:17:57;0.15;;;0.15;;
15555;SDS011;7879;48.660;9.116;2022-07-29T06:20:29;0.10;;;0.10;;
15555;SDS011;7879;48.660;9.116;2022-07-29T06:22:58;0.10;;;0.10;;
15555;SDS011;7879;48.660;9.116;2022-07-29T06:25:25;0.20;;;0.20;;
15555;SDS011;7879;48.660;9.116;2022-07-29T06:27:55;0.10;;;0.10;;
15555;SDS011;7879;48.660;9.116;2022-07-29T06:30:23;0.10;;;0.10;;
15555;SDS011;7879;48.660;9.116;2022-07-29T06:32:50;0.10;;;0.10;;
15555;SDS011;7879;48.660;9.116;2022-07-29T06:35:17;0.10;;;0.10;;
15555;SDS011;7879;48.660;9.116;2022-07-29T06:38:04;0.10;;;0.10;;
15555;SDS011;7879;48.660;9.116;2022-07-29T06:40:51;0.10;;;0.10;;
15555;SDS011;7879;48.660;9.116;2022-07-29T06:43:34;0.10;;;0.10;;
15555;SDS011;7879;48.660;9.116;2022-07-29T06:46:16;0.10;;;0.10;;
15555;SDS011;7879;48.660;9.116;2022-07-29T06:48:45;0.10;;;0.10;;
15555;SDS011;7879;48.660;9.116;2022-07-29T06:51:13;0.10;;;0.10;;
15555;SDS011;7879;48.660;9.116;2022-07-29T06:53:41;0.00;;;0.00;;
15555;SDS011;7879;48.660;9.116;2022-07-29T06:56:26;0.10;;;0.10;;
15555;SDS011;7879;48.660;9.116;2022-07-29T06:58:53;0.10;;;0.10;;
15555;SDS011;7879;48.660;9.116;2022-07-29T07:01:20;0.10;;;0.10;;
15555;SDS011;7879;48.660;9.116;2022-07-29T07:03:47;0.10;;;0.10;;
15555;SDS011;7879;48.660;9.116;2022-07-29T07:06:14;0.10;;;0.10;;
15555;SDS011;7879;48.660;9.116;2022-07-29T07:08:41;0.10;;;0.10;;
15555;SDS011;7879;48.660;9.116;2022-07-29T07:11:08;0.10;;;0.10;;
15555;SDS011;7879;48.660;9.116;2022-07-29T07:13:35;0.10;;;0.10;;
15555;SDS011;7879;48.660;9.116;2022-07-29T07:16:02;0.10;;;0.10;;
15555;SDS011;7879;48.660;9.116;2022-07-29T07:18:30;0.10;;;0.10;;
15555;SDS011;7879;48.660;9.116;2022-07-29T07:20:58;0.10;;;0.10;;
15555;SDS011;7879;48.660;9.116;2022-07-29T07:23:25;0.10;;;0.10;;
15555;SDS011;7879;48.660;9.116;2022-07-29T07:25:52;0.10;;;0.10;;
15555;SDS011;7879;48.660;9.116;2022-07-29T07:28:19;0.10;;;0.10;;
15555;SDS011;7879;48.660;9.116;2022-07-29T07:30:50;0.10;;;0.10;;
15555;SDS011;7879;48.660;9.116;2022-07-29T07:33:17;0.10;;;0.10;;
15555;SDS011;7879;48.660;9.116;2022-07-29T07:35:44;0.10;;;0.10;;
15555;SDS011;7879;48.660;9.116;2022-07-29T07:38:11;0.10;;;0.10;;
15555;SDS011;7879;48.660;9.116;2022-07-29T07:40:39;0.10;;;0.10;;
15555;SDS011;7879;48.660;9.116;2022-07-29T07:43:06;0.10;;;0.10;;
15555;SDS011;7879;48.660;9.116;2022-07-29T07:45:33;0.10;;;0.10;;
15555;SDS011;7879;48.660;9.116;2022-07-29T07:48:00;0.10;;;0.10;;
15555;SDS011;7879;48.660;9.116;2022-07-29T07:50:27;0.10;;;0.10;;
15555;SDS011;7879;48.660;9.116;2022-07-29T07:52:56;0.00;;;0.00;;
15555;SDS011;7879;48.660;9.116;2022-07-29T07:55:24;0.10;;;0.10;;
15555;SDS011;7879;48.660;9.116;2022-07-29T07:57:52;0.00;;;0.00;;
15555;SDS011;7879;48.660;9.116;2022-07-29T08:00:20;0.10;;;0.10;;
15555;SDS011;7879;48.660;9.116;2022-07-29T08:02:48;0.10;;;0.10;;
15555;SDS011;7879;48.660;9.116;2022-07-29T08:05:16;0.00;;;0.00;;
15555;SDS011;7879;48.660;9.116;2022-07-29T08:07:44;0.10;;;0.10;;
15555;SDS011;7879;48.660;9.116;2022-07-29T08:10:12;0.10;;;0.10;;
15555;SDS011;7879;48.660;9.116;2022-07-29T08:13:07;0.00;;;0.00;;
15555;SDS011;7879;48.660;9.116;2022-07-29T08:15:36;0.10;;;0.10;;
15555;SDS011;7879;48.660;9.116;2022-07-29T08:18:05;0.10;;;0.10;;
15555;SDS011;7879;48.660;9.116;2022-07-29T08:20:34;0.10;;;0.10;;
15555;SDS011;7879;48.660;9.116;2022-07-29T08:23:02;0.00;;;0.00;;
15555;SDS011;7879;48.660;9.116;2022-07-29T08:25:30;0.00;;;0.00;;
15555;SDS011;7879;48.660;9.116;2022-07-29T08:27:59;0.00;;;0.00;;
15555;SDS011;7879;48.660;9.116;2022-07-29T08:30:26;0.10;;;0.10;;
15555;SDS011;7879;48.660;9.116;2022-07-29T08:32:53;0.10;;;0.10;;
15555;SDS011;7879;48.660;9.116;2022-07-29T08:35:22;0.10;;;0.10;;
15555;SDS011;7879;48.660;9.116;2022-07-29T08:37:49;0.10;;;0.10;;
15555;SDS011;7879;48.660;9.116;2022-07-29T08:40:17;0.10;;;0.10;;
15555;SDS011;7879;48.660;9.116;2022-07-29T08:42:44;0.10;;;0.10;;
15555;SDS011;7879;48.660;9.116;2022-07-29T08:45:11;0.00;;;0.00;;
15555;SDS011;7879;48.660;9.116;2022-07-29T08:47:38;0.00;;;0.00;;
15555;SDS011;7879;48.660;9.116;2022-07-29T08:50:08;0.10;;;0.10;;
15555;SDS011;7879;48.660;9.116;2022-07-29T08:52:36;0.00;;;0.00;;
15555;SDS011;7879;48.660;9.116;2022-07-29T08:55:07;0.00;;;0.00;;
15555;SDS011;7879;48.660;9.116;2022-07-29T08:57:35;0.00;;;0.00;;
15555;SDS011;7879;48.660;9.116;2022-07-29T09:00:19;0.00;;;0.00;;
15555;SDS011;7879;48.660;9.116;2022-07-29T09:02:50;0.00;;;0.00;;
15555;SDS011;7879;48.660;9.116;2022-07-29T09:05:23;0.00;;;0.00;;
15555;SDS011;7879;48.660;9.116;2022-07-29T09:07:51;0.00;;;0.00;;
15555;SDS011;7879;48.660;9.116;2022-07-29T09:12:45;0.00;;;0.00;;
15555;SDS011;7879;48.660;9.116;2022-07-29T09:15:13;0.00;;;0.00;;
15555;SDS011;7879;48.660;9.116;2022-07-29T09:17:41;0.00;;;0.00;;
15555;SDS011;7879;48.660;9.116;2022-07-29T09:20:14;0.00;;;0.00;;
15555;SDS011;7879;48.660;9.116;2022-07-29T09:22:43;0.00;;;0.00;;
15555;SDS011;7879;48.660;9.116;2022-07-29T09:25:11;0.00;;;0.00;;
15555;SDS011;7879;48.660;9.116;2022-07-29T09:27:38;0.00;;;0.00;;
15555;SDS011;7879;48.660;9.116;2022-07-29T09:30:06;0.00;;;0.00;;
15555;SDS011;7879;48.660;9.116;2022-07-29T09:32:54;0.00;;;0.00;;
15555;SDS011;7879;48.660;9.116;2022-07-29T09:35:23;0.00;;;0.00;;
15555;SDS011;7879;48.660;9.116;2022-07-29T09:37:51;0.00;;;0.00;;
15555;SDS011;7879;48.660;9.116;2022-07-29T09:40:22;0.00;;;0.00;;
15555;SDS011;7879;48.660;9.116;2022-07-29T09:42:50;0.00;;;0.00;;
15555;SDS011;7879;48.660;9.116;2022-07-29T09:45:26;0.00;;;0.00;;
15555;SDS011;7879;48.660;9.116;2022-07-29T09:47:57;0.00;;;0.00;;
15555;SDS011;7879;48.660;9.116;2022-07-29T09:50:38;0.00;;;0.00;;
15555;SDS011;7879;48.660;9.116;2022-07-29T09:53:06;0.00;;;0.00;;
15555;SDS011;7879;48.660;9.116;2022-07-29T09:58:21;0.00;;;0.00;;
15555;SDS011;7879;48.660;9.116;2022-07-29T10:00:49;0.00;;;0.00;;
15555;SDS011;7879;48.660;9.116;2022-07-29T10:03:18;0.00;;;0.00;;
15555;SDS011;7879;48.660;9.116;2022-07-29T10:05:45;0.00;;;0.00;;
15555;SDS011;7879;48.660;9.116;2022-07-29T10:08:29;0.00;;;0.00;;
15555;SDS011;7879;48.660;9.116;2022-07-29T10:11:14;0.00;;;0.00;;
15555;SDS011;7879;48.660;9.116;2022-07-29T10:13:43;0.00;;;0.00;;
15555;SDS011;7879;48.660;9.116;2022-07-29T10:16:13;0.00;;;0.00;;
15555;SDS011;7879;48.660;9.116;2022-07-29T10:18:42;0.00;;;0.00;;
15555;SDS011;7879;48.660;9.116;2022-07-29T10:21:10;0.00;;;0.00;;
15555;SDS011;7879;48.660;9.116;2022-07-29T10:23:57;0.00;;;0.00;;
15555;SDS011;7879;48.660;9.116;2022-07-29T10:26:27;0.00;;;0.00;;
15555;SDS011;7879;48.660;9.116;2022-07-29T10:28:56;0.00;;;0.00;;
15555;SDS011;7879;48.660;9.116;2022-07-29T10:31:26;0.00;;;0.00;;
15555;SDS011;7879;48.660;9.116;2022-07-29T10:34:13;0.00;;;0.00;;
15555;SDS011;7879;48.660;9.116;2022-07-29T10:42:18;0.00;;;0.00;;
15555;SDS011;7879;48.660;9.116;2022-07-29T10:45:00;0.00;;;0.00;;
15555;SDS011;7879;48.660;9.116;2022-07-29T10:47:29;0.00;;;0.00;;
15555;SDS011;7879;48.660;9.116;2022-07-29T10:50:04;0.00;;;0.00;;
15555;SDS011;7879;48.660;9.116;2022-07-29T10:55:35;0.00;;;0.00;;
15555;SDS011;7879;48.660;9.116;2022-07-29T10:58:16;0.00;;;0.00;;
15555;SDS011;7879;48.660;9.116;2022-07-29T11:00:47;0.00;;;0.00;;
15555;SDS011;7879;48.660;9.116;2022-07-29T11:06:16;0.00;;;0.00;;
15555;SDS011;7879;48.660;9.116;2022-07-29T11:11:50;0.00;;;0.00;;
15555;SDS011;7879;48.660;9.116;2022-07-29T11:14:30;0.00;;;0.00;;
15555;SDS011;7879;48.660;9.116;2022-07-29T11:17:17;0.00;;;0.00;;
15555;SDS011;7879;48.660;9.116;2022-07-29T11:19:46;0.00;;;0.00;;
15555;SDS011;7879;48.660;9.116;2022-07-29T11:22:34;0.00;;;0.00;;
15555;SDS011;7879;48.660;9.116;2022-07-29T11:25:16;0.00;;;0.00;;
15555;SDS011;7879;48.660;9.116;2022-07-29T11:28:09;0.00;;;0.00;;
15555;SDS011;7879;48.660;9.116;2022-07-29T11:30:51;0.10;;;0.10;;
15555;SDS011;7879;48.660;9.116;2022-07-29T11:33:29;0.10;;;0.10;;
15555;SDS011;7879;48.660;9.116;2022-07-29T11:36:17;0.00;;;0.00;;
15555;SDS011;7879;48.660;9.116;2022-07-29T11:39:02;0.10;;;0.10;;
15555;SDS011;7879;48.660;9.116;2022-07-29T11:45:11;0.10;;;0.10;;
15555;SDS011;7879;48.660;9.116;2022-07-29T11:48:02;0.10;;;0.10;;
15555;SDS011;7879;48.660;9.116;2022-07-29T11:50:51;0.10;;;0.10;;
15555;SDS011;7879;48.660;9.116;2022-07-29T11:53:18;0.10;;;0.10;;
15555;SDS011;7879;48.660;9.116;2022-07-29T11:55:46;0.10;;;0.10;;
15555;SDS011;7879;48.660;9.116;2022-07-29T11:58:23;0.10;;;0.10;;
15555;SDS011;7879;48.660;9.116;2022-07-29T12:00:51;0.10;;;0.10;;
15555;SDS011;7879;48.660;9.116;2022-07-29T12:03:39;0.10;;;0.10;;
15555;SDS011;7879;48.660;9.116;2022-07-29T12:06:12;0.00;;;0.00;;
15555;SDS011;7879;48.660;9.116;2022-07-29T12:08:43;0.00;;;0.00;;
15555;SDS011;7879;48.660;9.116;2022-07-29T12:11:19;0.00;;;0.00;;
15555;SDS011;7879;48.660;9.116;2022-07-29T12:13:49;0.00;;;0.00;;
15555;SDS011;7879;48.660;9.116;2022-07-29T12:16:18;0.10;;;0.10;;
15555;SDS011;7879;48.660;9.116;2022-07-29T12:18:58;0.10;;;0.10;;
15555;SDS011;7879;48.660;9.116;2022-07-29T12:21:28;0.10;;;0.10;;
15555;SDS011;7879;48.660;9.116;2022-07-29T12:23:56;0.10;;;0.10;;
15555;SDS011;7879;48.660;9.116;2022-07-29T12:26:34;0.10;;;0.10;;
15555;SDS011;7879;48.660;9.116;2022-07-29T12:29:03;0.10;;;0.10;;
15555;SDS011;7879;48.660;9.116;2022-07-29T12:31:40;0.10;;;0.10;;
15555;SDS011;7879;48.660;9.116;2022-07-29T12:34:11;0.10;;;0.10;;
15555;SDS011;7879;48.660;9.116;2022-07-29T12:36:40;0.00;;;0.00;;
15555;SDS011;7879;48.660;9.116;2022-07-29T12:39:08;0.10;;;0.10;;
15555;SDS011;7879;48.660;9.116;2022-07-29T12:41:36;0.10;;;0.10;;
15555;SDS011;7879;48.660;9.116;2022-07-29T12:44:03;0.00;;;0.00;;
15555;SDS011;7879;48.660;9.116;2022-07-29T12:46:30;0.00;;;0.00;;
15555;SDS011;7879;48.660;9.116;2022-07-29T12:48:57;0.00;;;0.00;;
15555;SDS011;7879;48.660;9.116;2022-07-29T12:51:31;0.00;;;0.00;;
15555;SDS011;7879;48.660;9.116;2022-07-29T12:54:04;0.00;;;0.00;;
15555;SDS011;7879;48.660;9.116;2022-07-29T12:56:37;0.00;;;0.00;;
15555;SDS011;7879;48.660;9.116;2022-07-29T13:01:42;0.10;;;0.10;;
15555;SDS011;7879;48.660;9.116;2022-07-29T13:04:10;0.00;;;0.00;;
15555;SDS011;7879;48.660;9.116;2022-07-29T13:11:36;0.00;;;0.00;;
15555;SDS011;7879;48.660;9.116;2022-07-29T13:14:14;0.00;;;0.00;;
15555;SDS011;7879;48.660;9.116;2022-07-29T13:17:05;0.10;;;0.10;;
15555;SDS011;7879;48.660;9.116;2022-07-29T13:19:34;0.10;;;0.10;;
15555;SDS011;7879;48.660;9.116;2022-07-29T13:22:09;0.00;;;0.00;;
15555;SDS011;7879;48.660;9.116;2022-07-29T13:27:24;0.00;;;0.00;;
15555;SDS011;7879;48.660;9.116;2022-07-29T13:29:53;0.00;;;0.00;;
15555;SDS011;7879;48.660;9.116;2022-07-29T13:32:23;0.00;;;0.00;;
15555;SDS011;7879;48.660;9.116;2022-07-29T13:34:54;0.00;;;0.00;;
15555;SDS011;7879;48.660;9.116;2022-07-29T13:37:30;0.00;;;0.00;;
15555;SDS011;7879;48.660;9.116;2022-07-29T13:40:00;0.00;;;0.00;;
15555;SDS011;7879;48.660;9.116;2022-07-29T13:42:29;0.00;;;0.00;;
15555;SDS011;7879;48.660;9.116;2022-07-29T13:44:56;0.00;;;0.00;;
15555;SDS011;7879;48.660;9.116;2022-07-29T13:47:23;0.00;;;0.00;;
15555;SDS011;7879;48.660;9.116;2022-07-29T13:49:58;0.00;;;0.00;;
15555;SDS011;7879;48.660;9.116;2022-07-29T13:52:25;0.00;;;0.00;;
15555;SDS011;7879;48.660;9.116;2022-07-29T13:54:52;0.00;;;0.00;;
15555;SDS011;7879;48.660;9.116;2022-07-29T13:57:19;0.00;;;0.00;;
15555;SDS011;7879;48.660;9.116;2022-07-29T13:59:46;0.00;;;0.00;;
15555;SDS011;7879;48.660;9.116;2022-07-29T14:02:19;0.00;;;0.00;;
15555;SDS011;7879;48.660;9.116;2022-07-29T14:04:46;0.00;;;0.00;;
15555;SDS011;7879;48.660;9.116;2022-07-29T14:07:13;0.00;;;0.00;;
15555;SDS011;7879;48.660;9.116;2022-07-29T14:09:41;0.00;;;0.00;;
15555;SDS011;7879;48.660;9.116;2022-07-29T14:12:08;0.00;;;0.00;;
15555;SDS011;7879;48.660;9.116;2022-07-29T14:14:35;0.00;;;0.00;;
15555;SDS011;7879;48.660;9.116;2022-07-29T14:17:03;0.00;;;0.00;;
15555;SDS011;7879;48.660;9.116;2022-07-29T14:19:32;0.00;;;0.00;;
15555;SDS011;7879;48.660;9.116;2022-07-29T14:32:07;0.00;;;0.00;;
15555;SDS011;7879;48.660;9.116;2022-07-29T14:34:41;0.00;;;0.00;;
15555;SDS011;7879;48.660;9.116;2022-07-29T14:37:07;0.00;;;0.00;;
15555;SDS011;7879;48.660;9.116;2022-07-29T14:39:41;0.00;;;0.00;;
15555;SDS011;7879;48.660;9.116;2022-07-29T14:42:09;0.00;;;0.00;;
15555;SDS011;7879;48.660;9.116;2022-07-29T14:44:38;0.00;;;0.00;;
15555;SDS011;7879;48.660;9.116;2022-07-29T14:47:05;0.00;;;0.00;;
15555;SDS011;7879;48.660;9.116;2022-07-29T14:49:33;0.00;;;0.00;;
15555;SDS011;7879;48.660;9.116;2022-07-29T14:52:00;0.00;;;0.00;;
15555;SDS011;7879;48.660;9.116;2022-07-29T14:54:27;0.00;;;0.00;;
15555;SDS011;7879;48.660;9.116;2022-07-29T14:56:53;0.00;;;0.00;;
15555;SDS011;7879;48.660;9.116;2022-07-29T14:59:23;0.00;;;0.00;;
15555;SDS011;7879;48.660;9.116;2022-07-29T15:01:50;0.00;;;0.00;;
15555;SDS011;7879;48.660;9.116;2022-07-29T15:04:17;0.00;;;0.00;;
15555;SDS011;7879;48.660;9.116;2022-07-29T15:06:44;0.00;;;0.00;;
15555;SDS011;7879;48.660;9.116;2022-07-29T15:09:11;0.00;;;0.00;;
15555;SDS011;7879;48.660;9.116;2022-07-29T15:11:38;0.00;;;0.00;;
15555;SDS011;7879;48.660;9.116;2022-07-29T15:14:05;0.00;;;0.00;;
15555;SDS011;7879;48.660;9.116;2022-07-29T15:16:34;0.00;;;0.00;;
15555;SDS011;7879;48.660;9.116;2022-07-29T15:19:03;0.00;;;0.00;;
15555;SDS011;7879;48.660;9.116;2022-07-29T15:21:30;0.00;;;0.00;;
15555;SDS011;7879;48.660;9.116;2022-07-29T15:23:57;0.00;;;0.00;;
15555;SDS011;7879;48.660;9.116;2022-07-29T15:26:25;0.00;;;0.00;;
15555;SDS011;7879;48.660;9.116;2022-07-29T15:28:52;0.08;;;0.08;;
15555;SDS011;7879;48.660;9.116;2022-07-29T15:31:19;0.10;;;0.10;;
15555;SDS011;7879;48.660;9.116;2022-07-29T15:33:46;0.05;;;0.05;;
15555;SDS011;7879;48.660;9.116;2022-07-29T15:36:13;0.08;;;0.08;;
15555;SDS011;7879;48.660;9.116;2022-07-29T15:39:00;0.10;;;0.10;;
15555;SDS011;7879;48.660;9.116;2022-07-29T15:41:27;0.00;;;0.00;;
15555;SDS011;7879;48.660;9.116;2022-07-29T15:43:54;0.10;;;0.10;;
15555;SDS011;7879;48.660;9.116;2022-07-29T15:46:20;0.10;;;0.10;;
15555;SDS011;7879;48.660;9.116;2022-07-29T15:49:06;0.10;;;0.10;;
15555;SDS011;7879;48.660;9.116;2022-07-29T15:51:34;0.10;;;0.10;;
15555;SDS011;7879;48.660;9.116;2022-07-29T15:54:01;0.00;;;0.00;;
15555;SDS011;7879;48.660;9.116;2022-07-29T15:56:29;0.10;;;0.10;;
15555;SDS011;7879;48.660;9.116;2022-07-29T15:58:57;0.10;;;0.10;;
15555;SDS011;7879;48.660;9.116;2022-07-29T16:01:26;0.10;;;0.10;;
15555;SDS011;7879;48.660;9.116;2022-07-29T16:03:53;0.10;;;0.10;;
15555;SDS011;7879;48.660;9.116;2022-07-29T16:06:20;0.10;;;0.10;;
15555;SDS011;7879;48.660;9.116;2022-07-29T16:08:47;0.05;;;0.05;;
15555;SDS011;7879;48.660;9.116;2022-07-29T16:11:14;0.10;;;0.10;;
15555;SDS011;7879;48.660;9.116;2022-07-29T16:13:41;0.10;;;0.10;;
15555;SDS011;7879;48.660;9.116;2022-07-29T16:16:08;0.10;;;0.10;;
15555;SDS011;7879;48.660;9.116;2022-07-29T16:18:35;0.03;;;0.03;;
15555;SDS011;7879;48.660;9.116;2022-07-29T16:21:02;0.10;;;0.10;;